Aeroporto :
LOGIN :

Iscrizione | Disclaimer

   EN    FR    IT 

 










Sommario :    VFR   VFR Marginale   IFR   IFR Intensivo   IFR Molto Intensivo
Visibilità : 
Base nubi : 
>= 8 km
>= 3000ft
5 / 8 km
1000 / 3000 ft
1500m / 5 km
500 / 1000 ft
800 / 1500m
200 / 500 ft
< 800m
< 200 ft
Simboli :   Temporali  Nebbia  Neve Forte  Precipitazioni Forti  Vento > 20 kt
SIGMETs :   Varie  Temporali  Ghiacco  Turbolenza  Onda orograficha  Ceneri Vulcaniche






- Altitudine del aeroporto : 183 ft


LIBA - Amendola Foggia

ULTIMO METAR :
  • 240855Z 27006KT 240V310 9999 SCT040 12/06 Q1008

METARs OBSOLETI :
  • 240755Z 12002KT 9999 FEW035 SCT040 BKN060 10/07 Q1008 RMK BKN VIS MIN 9999 WIND THR11 14003KT WIND THR29 /////KT BLU
  • 240655Z 03003KT 9999 SCT040 BKN050 08/06 Q1008 RMK BKN VIS MIN 9999 WIND THR11 36002KT WIND THR29 /////KT BLU
  • 240555Z 23004KT 8000 -RA SCT040 08/04 Q1009
  • 240455Z 08004KT 9999 FEW040 07/04 Q1007 RMK BKN BKN080 VIS MIN 9999 WIND THR11 08003KT WIND THR29 /////KT BLU

TAF TAF LIBA
Valido dal 24 a 09 ore il 24 a 18 ore UTC


240800Z 2409/2418 22010KT 9999 SCT030 SCT060
TEMPO 2409/2415 24015G25KT 6000 RA FEW025CB BKN030



MetMap, La meteo Aeronautica in un colpo d'occhio ! - Copyright ORBIFLY Dicembre 2007 - Disclaimer

ORBIFLY MET'MAP TEAM :

Programmazione e sviluppo : Alexandra Zaïnal
Concezione : Baudouin d'Aumeries
Supporto tecnico e logistico : Manuel Goepfert
Aiuto : Marc-Olivier Méhu
Aiuto per la traduzione : Arnaldo La Scala




FONTI E CREDITI :

   NOAA